地図

経路データ

SID SEASON NUMBER BASIN SUBBASIN NAME ISO_TIME NATURE LAT LON WMO_WIND WMO_PRES WMO_AGENCY TRACK_TYPE DIST2LAND LANDFALL IFLAG USA_AGENCY USA_ATCF_ID USA_LAT USA_LON USA_RECORD USA_STATUS USA_WIND USA_PRES USA_SSHS USA_R34_NE USA_R34_SE USA_R34_SW USA_R34_NW USA_R50_NE USA_R50_SE USA_R50_SW USA_R50_NW USA_R64_NE USA_R64_SE USA_R64_SW USA_R64_NW USA_POCI USA_ROCI USA_RMW USA_EYE TOKYO_LAT TOKYO_LON TOKYO_GRADE TOKYO_WIND TOKYO_PRES TOKYO_R50_DIR TOKYO_R50_LONG TOKYO_R50_SHORT TOKYO_R30_DIR TOKYO_R30_LONG TOKYO_R30_SHORT TOKYO_LAND CMA_LAT CMA_LON CMA_CAT CMA_WIND CMA_PRES HKO_LAT HKO_LON HKO_CAT HKO_WIND HKO_PRES NEWDELHI_LAT NEWDELHI_LON NEWDELHI_GRADE NEWDELHI_WIND NEWDELHI_PRES NEWDELHI_CI NEWDELHI_DP NEWDELHI_POCI REUNION_LAT REUNION_LON REUNION_TYPE REUNION_WIND REUNION_PRES REUNION_TNUM REUNION_CI REUNION_RMW REUNION_R34_NE REUNION_R34_SE REUNION_R34_SW REUNION_R34_NW REUNION_R50_NE REUNION_R50_SE REUNION_R50_SW REUNION_R50_NW REUNION_R64_NE REUNION_R64_SE REUNION_R64_SW REUNION_R64_NW BOM_LAT BOM_LON BOM_TYPE BOM_WIND BOM_PRES BOM_TNUM BOM_CI BOM_RMW BOM_R34_NE BOM_R34_SE BOM_R34_SW BOM_R34_NW BOM_R50_NE BOM_R50_SE BOM_R50_SW BOM_R50_NW BOM_R64_NE BOM_R64_SE BOM_R64_SW BOM_R64_NW BOM_ROCI BOM_POCI BOM_EYE BOM_POS_METHOD BOM_PRES_METHOD NADI_LAT NADI_LON NADI_CAT NADI_WIND NADI_PRES WELLINGTON_LAT WELLINGTON_LON WELLINGTON_WIND WELLINGTON_PRES DS824_LAT DS824_LON DS824_STAGE DS824_WIND DS824_PRES TD9636_LAT TD9636_LON TD9636_STAGE TD9636_WIND TD9636_PRES TD9635_LAT TD9635_LON TD9635_WIND TD9635_PRES TD9635_ROCI NEUMANN_LAT NEUMANN_LON NEUMANN_CLASS NEUMANN_WIND NEUMANN_PRES MLC_LAT MLC_LON MLC_CLASS MLC_WIND MLC_PRES USA_GUST BOM_GUST BOM_GUST_PER REUNION_GUST REUNION_GUST_PER USA_SEAHGT USA_SEARAD_NE USA_SEARAD_SE USA_SEARAD_SW USA_SEARAD_NW STORM_SPEED STORM_DIR
1986243N13326 1986 88 NA NA NOT_NAMED 1986-08-30 12:00:00 TS 12.5000 -34.5000 20 hurdat_atl main 1822 1812 O_____________ hurdat_atl AL061986 12.5000 -34.5000 TD 20 -1 13 284
1986243N13326 1986 88 NA NA NOT_NAMED 1986-08-30 15:00:00 TS 12.6604 -35.1598 main 1820 1808 P_____________ AL061986 12.6604 -35.1598 TD 22 -1 13 283
1986243N13326 1986 88 NA NA NOT_NAMED 1986-08-30 18:00:00 TS 12.8000 -35.8000 25 hurdat_atl main 1813 1808 O_____________ hurdat_atl AL061986 12.8000 -35.8000 TD 25 -1 12 281
1986243N13326 1986 88 NA NA NOT_NAMED 1986-08-30 21:00:00 TS 12.9073 -36.4076 main 1809 1803 P_____________ AL061986 12.9073 -36.4076 TD 25 -1 12 280
1986243N13326 1986 88 NA NA NOT_NAMED 1986-08-31 00:00:00 TS 13.0000 -37.0000 25 hurdat_atl main 1808 1799 O_____________ hurdat_atl AL061986 13.0000 -37.0000 TD 25 -1 12 280
1986243N13326 1986 88 NA NA NOT_NAMED 1986-08-31 03:00:00 TS 13.1073 -37.5925 main 1799 1750 P_____________ AL061986 13.1073 -37.5925 TD 25 -1 12 280
1986243N13326 1986 88 NA NA NOT_NAMED 1986-08-31 06:00:00 TS 13.2000 -38.2000 25 hurdat_atl main 1750 1697 O_____________ hurdat_atl AL061986 13.2000 -38.2000 TD 25 -1 12 276
1986243N13326 1986 88 NA NA NOT_NAMED 1986-08-31 09:00:00 TS 13.2274 -38.8428 main 1697 1642 P_____________ AL061986 13.2274 -38.8428 TD 25 -1 13 275
1986243N13326 1986 88 NA NA NOT_NAMED 1986-08-31 12:00:00 TS 13.3000 -39.5000 25 hurdat_atl main 1642 1604 O_____________ hurdat_atl AL061986 13.3000 -39.5000 TD 25 -1 13 284
1986243N13326 1986 88 NA NA NOT_NAMED 1986-08-31 15:00:00 TS 13.5424 -40.1572 main 1596 1568 P_____________ AL061986 13.5424 -40.1572 TD 27 -1 14 292
1986243N13326 1986 88 NA NA NOT_NAMED 1986-08-31 18:00:00 TS 13.8000 -40.8000 30 hurdat_atl main 1568 1528 O_____________ hurdat_atl AL061986 13.8000 -40.8000 TD 30 -1 13 287
1986243N13326 1986 88 NA NA NOT_NAMED 1986-08-31 21:00:00 TS 13.9223 -41.4077 main 1528 1490 P_____________ AL061986 13.9223 -41.4077 TD 30 -1 12 280
1986243N13326 1986 88 NA NA NOT_NAMED 1986-09-01 00:00:00 TS 14.0000 -42.0000 30 hurdat_atl main 1490 1454 O_____________ hurdat_atl AL061986 14.0000 -42.0000 TD 30 -1 12 278
1986243N13326 1986 88 NA NA NOT_NAMED 1986-09-01 03:00:00 TS 14.0923 -42.5926 main 1454 1420 P_____________ AL061986 14.0923 -42.5926 TD 30 -1 12 280
1986243N13326 1986 88 NA NA NOT_NAMED 1986-09-01 06:00:00 TS 14.2000 -43.2000 30 hurdat_atl main 1420 1380 O_____________ hurdat_atl AL061986 14.2000 -43.2000 TD 30 -1 12 278
1986243N13326 1986 88 NA NA NOT_NAMED 1986-09-01 09:00:00 TS 14.2523 -43.8285 main 1389 1361 P_____________ AL061986 14.2523 -43.8285 TD 30 -1 13 283
1986243N13326 1986 88 NA NA NOT_NAMED 1986-09-01 12:00:00 TS 14.5000 -44.5000 30 hurdat_atl main 1364 1361 O_____________ hurdat_atl AL061986 14.5000 -44.5000 TD 30 -1 17 304
1986243N13326 1986 88 NA NA NOT_NAMED 1986-09-01 15:00:00 TS 15.1977 -45.2713 main 1375 1375 P_____________ AL061986 15.1977 -45.2713 TD 30 -1 21 316
1986243N13326 1986 88 NA NA NOT_NAMED 1986-09-01 18:00:00 TS 16.0000 -46.0000 30 hurdat_atl main 1408 1408 O_____________ hurdat_atl AL061986 16.0000 -46.0000 TD 30 -1 18 318
1986243N13326 1986 88 NA NA NOT_NAMED 1986-09-01 21:00:00 TS 16.5219 -46.5236 main 1429 1424 P_____________ AL061986 16.5219 -46.5236 TD 30 -1 14 316
1986243N13326 1986 88 NA NA NOT_NAMED 1986-09-02 00:00:00 TS 17.0000 -47.0000 30 hurdat_atl main 1454 1454 O_____________ hurdat_atl AL061986 17.0000 -47.0000 TD 30 -1 15 317
1986243N13326 1986 88 NA NA NOT_NAMED 1986-09-02 03:00:00 TS 17.5847 -47.5629 main 1489 1489 P_____________ AL061986 17.5847 -47.5629 TD 30 -1 17 316
1986243N13326 1986 88 NA NA NOT_NAMED 1986-09-02 06:00:00 TS 18.2000 -48.2000 30 hurdat_atl main 1523 1523 O_____________ hurdat_atl AL061986 18.2000 -48.2000 TD 30 -1 18 312
1986243N13326 1986 88 NA NA NOT_NAMED 1986-09-02 09:00:00 TS 18.7852 -48.9502 main 1550 1550 P_____________ AL061986 18.7852 -48.9502 TD 30 -1 19 310
1986243N13326 1986 88 NA NA NOT_NAMED 1986-09-02 12:00:00 TS 19.4000 -49.7000 30 hurdat_atl main 1555 1548 O_____________ hurdat_atl AL061986 19.4000 -49.7000 TD 30 -1 19 315
1986243N13326 1986 88 NA NA NOT_NAMED 1986-09-02 15:00:00 TS 20.1071 -50.3303 main 1555 1547 P_____________ AL061986 20.1071 -50.3303 TD 30 -1 18 321
1986243N13326 1986 88 NA NA NOT_NAMED 1986-09-02 18:00:00 TS 20.8000 -50.9000 30 hurdat_atl main 1562 1519 O_____________ hurdat_atl AL061986 20.8000 -50.9000 TD 30 -1 17 320
1986243N13326 1986 88 NA NA NOT_NAMED 1986-09-02 21:00:00 TS 21.3723 -51.4656 main 1511 1471 P_____________ AL061986 21.3723 -51.4656 TD 30 -1 15 317
1986243N13326 1986 88 NA NA NOT_NAMED 1986-09-03 00:00:00 TS 21.9000 -52.0000 30 hurdat_atl main 1471 1435 O_____________ hurdat_atl AL061986 21.9000 -52.0000 TD 30 -1 15 318
1986243N13326 1986 88 NA NA NOT_NAMED 1986-09-03 03:00:00 TS 22.4573 -52.5079 main 1438 1406 P_____________ AL061986 22.4573 -52.5079 TD 30 -1 14 320
1986243N13326 1986 88 NA NA NOT_NAMED 1986-09-03 06:00:00 TS 23.0000 -53.0000 30 hurdat_atl main 1406 1374 O_____________ hurdat_atl AL061986 23.0000 -53.0000 TD 30 -1 14 316
1986243N13326 1986 88 NA NA NOT_NAMED 1986-09-03 09:00:00 TS 23.4326 -53.5234 main 1374 1350 P_____________ AL061986 23.4326 -53.5234 TD 27 -1 14 317
1986243N13326 1986 88 NA NA NOT_NAMED 1986-09-03 12:00:00 TS 24.0000 -54.0000 25 hurdat_atl main 1354 1350 O_____________ hurdat_atl AL061986 24.0000 -54.0000 TD 25 -1 17 333
1986243N13326 1986 88 NA NA NOT_NAMED 1986-09-03 15:00:00 TS 24.9849 -54.3870 main 1371 1371 P_____________ AL061986 24.9849 -54.3870 TD 25 -1 21 342
1986243N13326 1986 88 NA NA NOT_NAMED 1986-09-03 18:00:00 TS 26.0000 -54.7000 25 hurdat_atl main 1406 1406 O_____________ hurdat_atl AL061986 26.0000 -54.7000 TD 25 -1 17 342
1986243N13326 1986 88 NA NA NOT_NAMED 1986-09-03 21:00:00 TS 26.6149 -54.9736 main 1421 1421 P_____________ AL061986 26.6149 -54.9736 TD 25 -1 13 340
1986243N13326 1986 88 NA NA NOT_NAMED 1986-09-04 00:00:00 TS 27.2000 -55.2000 25 hurdat_atl main 1448 1448 O_____________ hurdat_atl AL061986 27.2000 -55.2000 TD 25 -1 15 345
1986243N13326 1986 88 NA NA NOT_NAMED 1986-09-04 03:00:00 TS 28.0550 -55.4077 main 1501 1501 P_____________ AL061986 28.0550 -55.4077 TD 25 -1 18 349
1986243N13326 1986 88 NA NA NOT_NAMED 1986-09-04 06:00:00 TS 29.0000 -55.6000 25 hurdat_atl main 1560 1560 O_____________ hurdat_atl AL061986 29.0000 -55.6000 TD 25 -1 19 350
1986243N13326 1986 88 NA NA NOT_NAMED 1986-09-04 09:00:00 TS 29.9150 -55.7968 main 1622 1622 P_____________ AL061986 29.9150 -55.7968 TD 22 -1 18 349
1986243N13326 1986 88 NA NA NOT_NAMED 1986-09-04 12:00:00 TS 30.8000 -56.0000 20 hurdat_atl main 1633 O_____________ hurdat_atl AL061986 30.8000 -56.0000 TD 20 -1 18 349

IBTrACS Databaseについて

本データベースは、米国NOAAが公開する1842年以降の世界の熱帯低気圧のベストトラックデータアーカイブInternational Best Track Archive for Climate Stewardship (IBTrACS)を、ウェブで閲覧しやすい形式に変換したものです。

最終更新日:2021-12-06